createdAt,value
2022-09-10T00:01:34.102Z,73.13
2022-09-10T00:04:03.760Z,73.24
2022-09-10T00:06:35.529Z,73.00
2022-09-10T00:09:03.829Z,73.26
2022-09-10T00:11:33.064Z,72.97
2022-09-10T00:14:03.663Z,72.90
2022-09-10T00:16:32.719Z,73.00
2022-09-10T00:19:02.308Z,72.86
2022-09-10T00:21:31.284Z,72.90
2022-09-10T00:24:05.309Z,73.13
2022-09-10T00:26:38.332Z,73.19
2022-09-10T00:29:07.999Z,73.37
2022-09-10T00:31:37.107Z,73.25
2022-09-10T00:34:06.005Z,73.15
2022-09-10T00:36:38.320Z,73.49
2022-09-10T00:39:10.647Z,73.38
2022-09-10T00:41:39.392Z,73.69
2022-09-10T00:44:09.093Z,73.32
2022-09-10T00:46:43.580Z,73.45
2022-09-10T00:49:17.805Z,73.37
2022-09-10T00:51:48.724Z,73.39
2022-09-10T00:54:21.455Z,73.49
2022-09-10T00:56:50.807Z,73.32
2022-09-10T00:59:22.649Z,73.22
2022-09-10T01:01:51.346Z,73.31
2022-09-10T01:04:20.403Z,73.54
2022-09-10T01:06:52.444Z,72.76
2022-09-10T01:09:24.883Z,73.41
2022-09-10T01:12:04.574Z,73.94
2022-09-10T01:14:57.737Z,73.81
2022-09-10T01:17:35.242Z,73.60
2022-09-10T01:20:33.133Z,73.85
2022-09-10T01:23:32.999Z,74.00
2022-09-10T01:26:15.173Z,73.85
2022-09-10T01:28:50.456Z,74.06
2022-09-10T01:31:25.493Z,74.16
2022-09-10T01:33:58.988Z,74.04
2022-09-10T01:36:33.573Z,73.93
2022-09-10T01:39:03.690Z,74.38
2022-09-10T01:41:34.159Z,74.09
2022-09-10T01:44:10.962Z,74.13
2022-09-10T01:46:51.739Z,74.26
2022-09-10T01:49:31.285Z,73.98
2022-09-10T01:52:25.510Z,74.22
2022-09-10T01:55:07.875Z,73.87
2022-09-10T01:57:50.375Z,74.04
2022-09-10T02:00:23.134Z,74.19
2022-09-10T02:03:00.341Z,74.00
2022-09-10T02:05:35.266Z,74.13
2022-09-10T02:08:11.429Z,74.01
2022-09-10T02:10:51.437Z,73.98
2022-09-10T02:13:22.769Z,73.96
2022-09-10T02:16:30.385Z,73.66
2022-09-10T02:19:01.438Z,73.83
2022-09-10T02:21:32.099Z,73.79
2022-09-10T02:24:06.094Z,73.78
2022-09-10T02:26:34.626Z,73.90
2022-09-10T02:29:04.316Z,73.91
2022-09-10T02:31:34.323Z,74.05
2022-09-10T02:34:03.391Z,74.18
2022-09-10T02:36:32.332Z,73.87
2022-09-10T02:39:03.249Z,74.02
2022-09-10T02:41:34.085Z,73.75
2022-09-10T02:44:05.128Z,73.98
2022-09-10T02:46:34.744Z,73.79
2022-09-10T02:49:03.188Z,73.82
2022-09-10T02:51:35.099Z,74.05
2022-09-10T02:54:04.750Z,73.94
2022-09-10T02:56:33.121Z,74.06
2022-09-10T02:59:01.435Z,73.94
2022-09-10T03:01:30.679Z,73.89
2022-09-10T03:04:06.153Z,73.91
2022-09-10T03:06:34.442Z,74.11
2022-09-10T03:09:02.858Z,73.97
2022-09-10T03:11:31.436Z,73.74
2022-09-10T03:14:00.292Z,73.81
2022-09-10T03:16:30.889Z,73.65
2022-09-10T03:18:59.177Z,73.83
2022-09-10T03:21:29.474Z,73.67
2022-09-10T03:23:59.144Z,73.62
2022-09-10T03:26:30.775Z,73.93
2022-09-10T03:28:59.348Z,74.06
2022-09-10T03:31:31.359Z,73.68
2022-09-10T03:34:01.469Z,73.62
2022-09-10T03:36:33.427Z,73.75
2022-09-10T03:39:01.732Z,73.72
2022-09-10T03:41:32.443Z,73.92
2022-09-10T03:44:01.760Z,73.56
2022-09-10T03:46:29.979Z,73.64
2022-09-10T03:49:02.461Z,73.72
2022-09-10T03:51:34.177Z,73.61
2022-09-10T03:54:03.266Z,73.60
2022-09-10T03:56:34.100Z,73.77
2022-09-10T03:59:02.434Z,73.87
2022-09-10T04:01:30.979Z,74.09
2022-09-10T04:03:59.481Z,73.90
2022-09-10T04:06:32.418Z,74.24
2022-09-10T04:09:02.768Z,74.07
2022-09-10T04:11:31.033Z,74.06
2022-09-10T04:14:00.264Z,73.90
2022-09-10T04:16:29.511Z,74.20
2022-09-10T04:18:58.523Z,74.00
2022-09-10T04:21:27.525Z,74.05
2022-09-10T04:23:59.342Z,73.92
2022-09-10T04:26:29.261Z,73.83
2022-09-10T04:28:57.611Z,73.92
2022-09-10T04:31:26.103Z,74.40
2022-09-10T04:34:02.092Z,73.87
2022-09-10T04:36:31.987Z,74.11
2022-09-10T04:39:00.330Z,73.69
2022-09-10T04:41:31.313Z,73.66
2022-09-10T04:44:00.047Z,73.83
2022-09-10T04:46:28.251Z,73.83
2022-09-10T04:49:00.416Z,74.14
2022-09-10T04:51:28.929Z,74.08
2022-09-10T04:53:59.464Z,74.10
2022-09-10T04:56:34.903Z,74.14
2022-09-10T04:59:03.178Z,74.16
2022-09-10T05:01:34.971Z,74.11
2022-09-10T05:04:03.783Z,74.10
2022-09-10T05:06:32.721Z,74.13
2022-09-10T05:09:01.290Z,74.26
2022-09-10T05:11:29.952Z,74.28
2022-09-10T05:13:59.634Z,73.96
2022-09-10T05:16:30.441Z,74.07
2022-09-10T05:18:59.254Z,74.26
2022-09-10T05:21:29.248Z,73.98
2022-09-10T05:23:57.444Z,74.04
2022-09-10T05:26:27.738Z,74.06
2022-09-10T05:29:00.279Z,74.04
2022-09-10T05:31:30.270Z,73.89
2022-09-10T05:33:59.434Z,74.34
2022-09-10T05:36:28.002Z,74.11
2022-09-10T05:38:56.552Z,73.99
2022-09-10T05:41:26.160Z,74.11
2022-09-10T05:43:56.525Z,74.00
2022-09-10T05:46:24.895Z,74.04
2022-09-10T05:48:58.126Z,73.82
2022-09-10T05:51:30.720Z,73.77
2022-09-10T05:54:03.503Z,73.57
2022-09-10T05:56:33.466Z,73.76
2022-09-10T05:59:04.091Z,73.49
2022-09-10T06:01:34.036Z,73.79
2022-09-10T06:04:08.158Z,73.76
2022-09-10T06:06:36.357Z,73.43
2022-09-10T06:09:09.159Z,73.24
2022-09-10T06:11:55.924Z,73.48
2022-09-10T06:14:24.931Z,73.57
2022-09-10T06:16:55.237Z,73.32
2022-09-10T06:19:26.594Z,73.33
2022-09-10T06:21:56.352Z,73.16
2022-09-10T06:24:25.918Z,73.37
2022-09-10T06:26:57.408Z,73.38
2022-09-10T06:29:27.088Z,73.29
2022-09-10T06:31:55.957Z,73.18
2022-09-10T06:34:26.813Z,73.08
2022-09-10T06:36:55.344Z,72.90
2022-09-10T06:39:23.696Z,73.33
2022-09-10T06:41:56.893Z,73.17
2022-09-10T06:45:03.489Z,72.93
2022-09-10T06:51:02.444Z,72.71
2022-09-10T06:53:38.327Z,72.30
2022-09-10T06:56:09.469Z,72.13
2022-09-10T06:58:39.791Z,71.17
2022-09-10T07:01:12.411Z,70.59
2022-09-10T07:03:43.527Z,70.75
2022-09-10T07:06:15.412Z,70.91
2022-09-10T07:08:45.420Z,71.25
2022-09-10T07:11:16.421Z,70.44
2022-09-10T07:13:46.086Z,69.64
2022-09-10T07:16:19.593Z,68.87
2022-09-10T07:18:50.028Z,68.20
2022-09-10T07:21:23.111Z,68.29
2022-09-10T07:23:56.375Z,67.67
2022-09-10T07:26:24.729Z,67.40
2022-09-10T07:28:55.896Z,65.96
2022-09-10T07:31:28.097Z,65.95
2022-09-10T07:33:57.822Z,63.94
2022-09-10T07:36:27.808Z,61.76
2022-09-10T07:39:01.615Z,59.71
2022-09-10T07:41:35.498Z,57.01
2022-09-10T07:44:06.541Z,54.29
2022-09-10T07:46:39.191Z,53.39
2022-09-10T07:49:10.899Z,50.98
2022-09-10T07:51:42.689Z,51.52
2022-09-10T07:54:11.245Z,52.17
2022-09-10T07:56:44.292Z,51.04
2022-09-10T07:59:15.246Z,51.07
2022-09-10T08:01:58.781Z,48.85
2022-09-10T08:04:36.520Z,46.83
2022-09-10T08:07:09.311Z,46.24
2022-09-10T08:09:39.791Z,45.55
2022-09-10T08:12:11.042Z,45.79
2022-09-10T08:14:39.294Z,46.90
2022-09-10T08:17:08.818Z,47.08
2022-09-10T08:19:41.731Z,47.33
2022-09-10T08:22:14.301Z,47.44
2022-09-10T08:24:53.872Z,46.97
2022-09-10T08:27:24.277Z,46.60
2022-09-10T08:29:53.500Z,45.41
2022-09-10T08:32:22.070Z,45.02
2022-09-10T08:34:50.505Z,44.64
2022-09-10T08:37:20.161Z,44.28
2022-09-10T08:39:48.460Z,44.65
2022-09-10T08:42:23.996Z,44.19
2022-09-10T08:44:55.662Z,44.31
2022-09-10T08:47:33.443Z,44.80
2022-09-10T08:50:13.836Z,45.38
2022-09-10T08:52:49.469Z,42.98
2022-09-10T08:55:28.465Z,44.31
2022-09-10T08:58:01.102Z,45.03
2022-09-10T09:00:33.038Z,45.48
2022-09-10T09:03:06.076Z,44.48
2022-09-10T09:05:45.958Z,43.28
2022-09-10T09:08:18.999Z,43.74
2022-09-10T09:10:51.849Z,44.16
2022-09-10T09:13:48.087Z,44.99
2022-09-10T09:16:41.866Z,44.74
2022-09-10T09:19:23.382Z,44.42
2022-09-10T09:21:53.373Z,45.26
2022-09-10T09:24:38.002Z,45.96
2022-09-10T09:27:12.847Z,43.92
2022-09-10T09:29:48.824Z,43.02
2022-09-10T09:32:20.323Z,39.90
2022-09-10T09:34:51.377Z,40.76
2022-09-10T09:37:24.454Z,39.27
2022-09-10T09:40:08.452Z,38.23
2022-09-10T09:42:45.657Z,38.14
2022-09-10T09:45:23.539Z,38.81
2022-09-10T09:47:54.560Z,37.63
2022-09-10T09:50:23.326Z,39.14
2022-09-10T09:52:56.404Z,38.43
2022-09-10T09:55:33.021Z,37.72
2022-09-10T09:58:30.701Z,37.09
2022-09-10T10:01:13.063Z,36.96
2022-09-10T10:03:50.394Z,37.85
2022-09-10T10:06:21.210Z,37.69
2022-09-10T10:08:58.939Z,38.36
2022-09-10T10:11:49.004Z,39.17
2022-09-10T10:14:39.950Z,38.70
2022-09-10T10:17:34.682Z,39.45
2022-09-10T10:20:08.581Z,40.44
2022-09-10T10:22:37.818Z,40.09
2022-09-10T10:25:12.046Z,40.91
2022-09-10T10:27:45.419Z,40.49
2022-09-10T10:30:25.226Z,43.02
2022-09-10T10:32:56.070Z,43.08
2022-09-10T10:35:37.651Z,43.38
2022-09-10T10:38:40.405Z,43.77
2022-09-10T10:41:42.927Z,45.07
2022-09-10T10:44:26.133Z,46.52
2022-09-10T10:47:05.052Z,44.97
2022-09-10T10:49:48.342Z,43.77
2022-09-10T10:52:25.551Z,43.00
2022-09-10T10:55:08.268Z,44.36
2022-09-10T10:57:55.443Z,44.47
2022-09-10T11:00:25.951Z,44.71
2022-09-10T11:03:03.686Z,43.77
2022-09-10T11:05:38.574Z,44.77
2022-09-10T11:08:11.680Z,46.22
2022-09-10T11:10:45.247Z,46.24
2022-09-10T11:13:21.858Z,45.62
2022-09-10T11:15:56.093Z,45.49
2022-09-10T11:18:29.806Z,44.82
2022-09-10T11:21:04.294Z,43.79
2022-09-10T11:23:38.209Z,44.66
2022-09-10T11:26:12.355Z,44.75
2022-09-10T11:28:46.962Z,43.01
2022-09-10T11:31:23.747Z,44.39
2022-09-10T11:34:00.187Z,44.31
2022-09-10T11:36:34.607Z,44.24
2022-09-10T11:39:12.251Z,44.35
2022-09-10T11:41:43.623Z,43.38
2022-09-10T11:44:33.346Z,42.29
2022-09-10T11:47:11.032Z,41.62
2022-09-10T11:49:48.570Z,43.00
2022-09-10T11:52:17.633Z,43.20
2022-09-10T11:54:47.771Z,41.63
2022-09-10T11:57:27.714Z,42.11
2022-09-10T12:00:08.284Z,40.95
2022-09-10T12:03:20.398Z,42.17
2022-09-10T12:06:00.772Z,42.03
2022-09-10T12:08:51.924Z,41.84
2022-09-10T12:11:29.544Z,42.97
2022-09-10T12:13:58.908Z,43.88
2022-09-10T12:16:35.854Z,43.93
2022-09-10T12:19:10.743Z,43.18
2022-09-10T12:21:44.160Z,43.23
2022-09-10T12:24:28.082Z,42.70
2022-09-10T12:26:57.017Z,42.35
2022-09-10T12:29:31.784Z,42.14
2022-09-10T12:32:30.884Z,42.46
2022-09-10T12:35:48.163Z,41.07
2022-09-10T12:38:50.057Z,42.41
2022-09-10T12:41:56.620Z,42.60
2022-09-10T12:44:45.249Z,42.59
2022-09-10T12:47:41.648Z,42.56
2022-09-10T12:50:32.847Z,42.71
2022-09-10T12:53:38.835Z,43.00
2022-09-10T12:56:30.440Z,42.63
2022-09-10T12:59:13.013Z,42.62
2022-09-10T13:01:46.391Z,42.54
2022-09-10T13:04:28.575Z,41.99
2022-09-10T13:06:58.346Z,41.56
2022-09-10T13:09:29.988Z,41.98
2022-09-10T13:12:04.223Z,42.21
2022-09-10T13:14:38.260Z,41.86
2022-09-10T13:17:07.543Z,42.30
2022-09-10T13:19:50.229Z,40.89
2022-09-10T13:22:52.354Z,41.57
2022-09-10T13:25:41.554Z,40.45
2022-09-10T13:28:46.814Z,39.04
2022-09-10T13:31:23.707Z,40.56
2022-09-10T13:34:33.147Z,40.64
2022-09-10T13:37:15.276Z,40.82
2022-09-10T13:40:11.076Z,41.32
2022-09-10T13:42:56.886Z,42.11
2022-09-10T13:45:29.487Z,42.47
2022-09-10T13:48:09.880Z,42.53
2022-09-10T13:50:46.362Z,42.14
2022-09-10T13:53:17.172Z,42.54
2022-09-10T13:55:54.778Z,43.41
2022-09-10T13:58:28.665Z,42.95
2022-09-10T14:00:58.922Z,43.89
2022-09-10T14:03:33.583Z,43.81
2022-09-10T14:06:05.190Z,43.28
2022-09-10T14:08:38.571Z,43.26
2022-09-10T14:11:09.822Z,42.87
2022-09-10T14:13:42.593Z,43.09
2022-09-10T14:16:14.521Z,43.69
2022-09-10T14:18:48.578Z,43.45
2022-09-10T14:21:19.645Z,42.92
2022-09-10T14:23:49.693Z,42.87
2022-09-10T14:26:24.266Z,42.91
2022-09-10T14:28:54.904Z,41.86
2022-09-10T14:31:33.576Z,40.80
2022-09-10T14:34:27.526Z,41.59
2022-09-10T14:36:56.058Z,42.08
2022-09-10T14:39:25.342Z,41.88
2022-09-10T14:42:10.449Z,43.03
2022-09-10T14:44:42.513Z,42.81
2022-09-10T14:47:16.334Z,42.98
2022-09-10T14:49:47.244Z,42.65
2022-09-10T14:52:16.051Z,42.80
2022-09-10T14:54:44.272Z,43.22
2022-09-10T14:57:15.417Z,42.49
2022-09-10T14:59:45.251Z,42.50
2022-09-10T15:02:18.404Z,41.76
2022-09-10T15:04:48.390Z,42.00
2022-09-10T15:07:16.659Z,42.60
2022-09-10T15:09:44.831Z,43.20
2022-09-10T15:12:19.649Z,43.67
2022-09-10T15:14:47.873Z,42.80
2022-09-10T15:17:17.649Z,43.51
2022-09-10T15:19:48.429Z,43.53
2022-09-10T15:22:23.747Z,43.97
2022-09-10T15:25:09.271Z,44.16
2022-09-10T15:27:38.571Z,44.56
2022-09-10T15:30:08.483Z,44.40
2022-09-10T15:32:36.756Z,44.20
2022-09-10T15:35:08.782Z,44.65
2022-09-10T15:37:36.983Z,44.57
2022-09-10T15:40:05.856Z,44.15
2022-09-10T15:42:35.030Z,43.94
2022-09-10T15:45:03.380Z,44.22
2022-09-10T15:47:33.592Z,44.31
2022-09-10T15:50:01.654Z,44.73
2022-09-10T15:52:31.090Z,44.68
2022-09-10T15:54:59.628Z,44.86
2022-09-10T15:57:28.067Z,44.56
2022-09-10T15:59:56.533Z,44.94
2022-09-10T16:02:25.242Z,46.05
2022-09-10T16:04:53.996Z,46.32
2022-09-10T16:07:22.453Z,46.96
2022-09-10T16:09:52.409Z,47.13
2022-09-10T16:12:20.666Z,47.12
2022-09-10T16:14:49.283Z,46.90
2022-09-10T16:17:17.488Z,47.31
2022-09-10T16:19:45.709Z,47.60
2022-09-10T16:22:17.496Z,48.04
2022-09-10T16:24:48.231Z,48.46
2022-09-10T16:27:18.132Z,49.61
2022-09-10T16:29:47.108Z,50.65
2022-09-10T16:32:15.597Z,50.77
2022-09-10T16:34:43.773Z,51.05
2022-09-10T16:37:11.860Z,51.56
2022-09-10T16:39:40.364Z,51.92
2022-09-10T16:42:09.847Z,52.59
2022-09-10T16:44:41.287Z,52.34
2022-09-10T16:47:09.541Z,52.80
2022-09-10T16:49:38.085Z,53.10
2022-09-10T16:52:06.336Z,53.06
2022-09-10T16:54:34.385Z,53.68
2022-09-10T16:57:02.508Z,53.61
2022-09-10T16:59:30.659Z,53.90
2022-09-10T17:02:01.390Z,53.79
2022-09-10T17:04:29.658Z,53.90
2022-09-10T17:06:58.538Z,54.04
2022-09-10T17:09:26.957Z,54.22
2022-09-10T17:11:55.261Z,54.56
2022-09-10T17:14:23.795Z,54.81
2022-09-10T17:16:52.248Z,54.99
2022-09-10T17:19:26.445Z,55.05
2022-09-10T17:21:56.909Z,55.20
2022-09-10T17:24:26.957Z,55.36
2022-09-10T17:26:56.237Z,55.25
2022-09-10T17:29:26.711Z,55.75
2022-09-10T17:31:57.461Z,55.73
2022-09-10T17:34:28.300Z,55.57
2022-09-10T17:36:56.942Z,55.81
2022-09-10T17:39:28.298Z,56.00
2022-09-10T17:41:56.751Z,55.77
2022-09-10T17:44:25.797Z,56.02
2022-09-10T17:46:55.236Z,56.23
2022-09-10T17:49:24.507Z,56.43
2022-09-10T17:51:54.519Z,56.65
2022-09-10T17:54:23.588Z,56.71
2022-09-10T17:56:51.888Z,56.70
2022-09-10T17:59:21.277Z,56.90
2022-09-10T18:01:50.633Z,57.18
2022-09-10T18:04:21.633Z,57.55
2022-09-10T18:06:52.352Z,58.11
2022-09-10T18:09:23.647Z,58.20
2022-09-10T18:11:51.850Z,58.62
2022-09-10T18:14:21.625Z,58.73
2022-09-10T18:16:51.213Z,58.99
2022-09-10T18:19:19.833Z,59.50
2022-09-10T18:21:49.079Z,59.73
2022-09-10T18:24:19.168Z,59.87
2022-09-10T18:26:50.355Z,59.96
2022-09-10T18:29:20.707Z,59.74
2022-09-10T18:31:51.264Z,59.77
2022-09-10T18:34:23.188Z,59.82
2022-09-10T18:36:53.545Z,60.46
2022-09-10T18:39:22.859Z,60.49
2022-09-10T18:41:53.456Z,60.39
2022-09-10T18:44:24.013Z,60.58
2022-09-10T18:46:53.869Z,60.46
2022-09-10T18:49:24.430Z,60.71
2022-09-10T18:51:54.272Z,61.20
2022-09-10T18:54:23.730Z,61.58
2022-09-10T18:56:54.135Z,61.76
2022-09-10T18:59:24.277Z,62.18
2022-09-10T19:01:55.990Z,62.30
2022-09-10T19:04:26.114Z,63.08
2022-09-10T19:06:55.192Z,63.32
2022-09-10T19:09:25.737Z,63.39
2022-09-10T19:11:59.196Z,63.86
2022-09-10T19:14:29.887Z,63.92
2022-09-10T19:16:59.645Z,63.88
2022-09-10T19:19:29.960Z,64.34
2022-09-10T19:22:01.246Z,64.34
2022-09-10T19:24:50.911Z,64.72
2022-09-10T19:27:19.591Z,64.30
2022-09-10T19:29:49.962Z,64.50
2022-09-10T19:32:19.865Z,64.67
2022-09-10T19:34:50.929Z,64.72
2022-09-10T19:37:19.659Z,64.94
2022-09-10T19:39:48.028Z,65.08
2022-09-10T19:42:16.494Z,65.34
2022-09-10T19:44:46.305Z,65.64
2022-09-10T19:47:14.730Z,65.83
2022-09-10T19:49:43.237Z,66.16
2022-09-10T19:52:11.874Z,66.33
2022-09-10T19:54:40.058Z,66.24
2022-09-10T19:57:08.278Z,65.91
2022-09-10T19:59:36.503Z,66.67
2022-09-10T20:02:06.480Z,66.43
2022-09-10T20:04:36.128Z,66.48
2022-09-10T20:07:04.513Z,66.25
2022-09-10T20:09:35.680Z,66.10
2022-09-10T20:12:06.332Z,66.44
2022-09-10T20:14:34.521Z,66.34
2022-09-10T20:17:03.158Z,66.59
2022-09-10T20:19:32.848Z,66.53
2022-09-10T20:22:01.120Z,66.64
2022-09-10T20:24:29.370Z,66.88
2022-09-10T20:26:57.778Z,66.38
2022-09-10T20:29:26.525Z,66.74
2022-09-10T20:31:54.738Z,66.60
2022-09-10T20:34:23.563Z,66.63
2022-09-10T20:36:53.365Z,67.12
2022-09-10T20:39:25.303Z,66.90
2022-09-10T20:41:53.852Z,66.99
2022-09-10T20:44:23.132Z,66.84
2022-09-10T20:46:52.012Z,66.68
2022-09-10T20:49:21.438Z,66.82
2022-09-10T20:51:49.664Z,66.67
2022-09-10T20:54:20.597Z,66.74
2022-09-10T20:56:49.166Z,67.07
2022-09-10T20:59:19.335Z,67.33
2022-09-10T21:01:50.897Z,67.63
2022-09-10T21:04:19.971Z,67.58
2022-09-10T21:06:48.168Z,67.57
2022-09-10T21:09:16.549Z,67.38
2022-09-10T21:11:46.251Z,67.29
2022-09-10T21:14:15.148Z,67.05
2022-09-10T21:16:43.578Z,66.76
2022-09-10T21:19:13.700Z,67.00
2022-09-10T21:21:45.050Z,66.79
2022-09-10T21:24:15.429Z,66.91
2022-09-10T21:26:45.927Z,66.96
2022-09-10T21:29:16.464Z,67.56
2022-09-10T21:31:45.585Z,67.71
2022-09-10T21:34:14.683Z,67.50
2022-09-10T21:36:43.885Z,67.76
2022-09-10T21:39:16.351Z,67.65
2022-09-10T21:41:48.194Z,67.55
2022-09-10T21:44:19.940Z,67.85
2022-09-10T21:46:48.927Z,67.89
2022-09-10T21:49:18.065Z,67.97
2022-09-10T21:51:46.775Z,68.06
2022-09-10T21:54:18.667Z,68.08
2022-09-10T21:56:49.185Z,68.26
2022-09-10T21:59:17.551Z,68.29
2022-09-10T22:01:47.964Z,68.28
2022-09-10T22:04:21.731Z,68.02
2022-09-10T22:06:51.434Z,68.23
2022-09-10T22:09:20.042Z,68.18
2022-09-10T22:11:51.954Z,67.91
2022-09-10T22:14:22.680Z,68.00
2022-09-10T22:16:51.779Z,67.97
2022-09-10T22:19:23.070Z,67.64
2022-09-10T22:21:53.953Z,67.60
2022-09-10T22:24:22.376Z,67.58
2022-09-10T22:26:52.022Z,67.52
2022-09-10T22:29:21.495Z,67.39
2022-09-10T22:31:50.346Z,67.81
2022-09-10T22:34:20.901Z,67.77
2022-09-10T22:36:50.238Z,67.85
2022-09-10T22:39:20.907Z,68.14
2022-09-10T22:41:50.000Z,67.57
2022-09-10T22:44:20.384Z,67.87
2022-09-10T22:46:49.145Z,68.10
2022-09-10T22:49:18.663Z,68.23
2022-09-10T22:51:47.146Z,68.01
2022-09-10T22:54:16.668Z,67.87
2022-09-10T22:56:45.616Z,68.13
2022-09-10T22:59:15.621Z,68.10
2022-09-10T23:01:48.319Z,67.83
2022-09-10T23:04:17.550Z,68.24
2022-09-10T23:06:45.750Z,68.01
2022-09-10T23:09:15.973Z,68.14
2022-09-10T23:11:45.345Z,68.04
2022-09-10T23:14:15.575Z,67.90
2022-09-10T23:16:48.505Z,68.00
2022-09-10T23:19:20.616Z,68.19
2022-09-10T23:21:51.238Z,68.70
2022-09-10T23:24:22.083Z,68.27
2022-09-10T23:26:50.316Z,68.38
2022-09-10T23:29:18.681Z,68.19
2022-09-10T23:31:48.944Z,68.25
2022-09-10T23:34:19.566Z,68.07
2022-09-10T23:36:49.289Z,68.40
2022-09-10T23:39:19.880Z,68.40
2022-09-10T23:41:48.100Z,68.28
2022-09-10T23:44:17.007Z,68.36
2022-09-10T23:46:45.968Z,68.64
2022-09-10T23:49:16.079Z,68.53
2022-09-10T23:51:44.430Z,69.28
2022-09-10T23:54:13.360Z,69.90
2022-09-10T23:56:43.274Z,70.07
2022-09-10T23:59:12.107Z,70.44
